Airfield :
LOGIN :

Register | Disclaimer

   EN    FR    IT 

 










Legend :    VFR   Marginal VFR   IFR   Intensive IFR   Very Intensive IFR
Visi :
Ceiling :
>= 8 km
>= 3000ft
5 to 8 km
1000 to 3000 ft
1500m to 5 km
500 to 1000 ft
800 to 1500m
200 to 500 ft
< 800m
< 200 ft
Symbols :   Thunderstorms  Fog  Heavy snow  Heavy precipitations  Wind > 20 kt
SIGMETs :     Misc.  Thunderstorms  Icing  Turbulence  Mountain Waves  Volcanic Ashes






- Airport Elevation : 117 ft
- IATA code : NWI


EGSH - Norwich

CURRENT METAR :
  • 280720Z 25015KT 9999 SCT015 04/02 Q0988

EXPIRED METARs :
  • 280650Z 26014KT 9999 SCT015 04/02 Q0988
  • 280620Z 25014KT 9999 SCT012 SCT017 04/02 Q0988 TEMPO BKN012
  • 280550Z 25011KT 9999 -RADZ SCT012 BKN015 04/03 Q0987 TEMPO SHRA BKN012
  • 280520Z AUTO 25012KT 9999 SCT012/// BKN017/// BKN028/// 05/03 Q0987
  • 280450Z AUTO 25013KT 9999 -RA FEW007/// BKN011/// BKN015/// 05/03 Q0987
  • 280420Z AUTO 24011KT 9000 -RA FEW007/// BKN010/// BKN014/// 05/04 Q0987

TAF TAF EGSH
Valid from the 28 at 06:00 until the 28 at 15:00 UTC


280455Z 2806/2815 26012KT 9999 FEW006 SCT025
PROB30
TEMPO 2806/2815 24015G25KT
PROB30
TEMPO 2806/2808 6000 RA BKN006
ATIS : +44 1603 420 640



MET'MAP, your aeronautical weather chart ! - Copyright ORBIFLY December 2007 - Disclaimer

ORBIFLY MET'MAP TEAM :

Programming & Development : Alexandra Zaïnal
Concept & original design : Baudouin d'Aumeries
Assistance for programming : Marc-Olivier Méhu
Technical & hardware support : Manuel Goepfert

Contact : metmap@orbifly.com




SOURCES & CREDITS :

   NOAA